sensor_id;sensor_type;location;lat;lon;timestamp;P1;durP1;ratioP1;P2;durP2;ratioP2
13872;SDS011;7006;51.494;11.964;2023-02-28T00:01:33;5.10;;;3.83;;
13872;SDS011;7006;51.494;11.964;2023-02-28T00:04:04;7.47;;;3.97;;
13872;SDS011;7006;51.494;11.964;2023-02-28T00:06:34;5.47;;;3.60;;
13872;SDS011;7006;51.494;11.964;2023-02-28T00:09:02;4.53;;;3.33;;
13872;SDS011;7006;51.494;11.964;2023-02-28T00:11:31;6.00;;;3.93;;
13872;SDS011;7006;51.494;11.964;2023-02-28T00:13:59;6.00;;;3.90;;
13872;SDS011;7006;51.494;11.964;2023-02-28T00:16:27;5.83;;;4.00;;
13872;SDS011;7006;51.494;11.964;2023-02-28T00:18:55;4.93;;;4.00;;
13872;SDS011;7006;51.494;11.964;2023-02-28T00:21:26;5.57;;;3.80;;
13872;SDS011;7006;51.494;11.964;2023-02-28T00:23:54;4.67;;;3.63;;
13872;SDS011;7006;51.494;11.964;2023-02-28T00:26:22;6.20;;;4.43;;
13872;SDS011;7006;51.494;11.964;2023-02-28T00:28:51;6.00;;;4.43;;
13872;SDS011;7006;51.494;11.964;2023-02-28T00:31:19;7.00;;;3.97;;
13872;SDS011;7006;51.494;11.964;2023-02-28T00:33:48;7.47;;;4.50;;
13872;SDS011;7006;51.494;11.964;2023-02-28T00:36:16;5.43;;;3.80;;
13872;SDS011;7006;51.494;11.964;2023-02-28T00:38:47;5.60;;;4.10;;
13872;SDS011;7006;51.494;11.964;2023-02-28T00:41:18;5.60;;;4.43;;
13872;SDS011;7006;51.494;11.964;2023-02-28T00:43:46;5.93;;;4.13;;
13872;SDS011;7006;51.494;11.964;2023-02-28T00:46:14;5.83;;;4.43;;
13872;SDS011;7006;51.494;11.964;2023-02-28T00:48:43;6.77;;;4.77;;
13872;SDS011;7006;51.494;11.964;2023-02-28T00:51:11;6.77;;;4.57;;
13872;SDS011;7006;51.494;11.964;2023-02-28T00:53:39;7.60;;;4.27;;
13872;SDS011;7006;51.494;11.964;2023-02-28T00:56:10;5.73;;;4.20;;
13872;SDS011;7006;51.494;11.964;2023-02-28T00:58:38;6.90;;;4.17;;
13872;SDS011;7006;51.494;11.964;2023-02-28T01:01:06;9.00;;;4.33;;
13872;SDS011;7006;51.494;11.964;2023-02-28T01:03:35;4.37;;;3.50;;
13872;SDS011;7006;51.494;11.964;2023-02-28T01:06:03;6.20;;;4.43;;
13872;SDS011;7006;51.494;11.964;2023-02-28T01:08:32;6.87;;;4.00;;
13872;SDS011;7006;51.494;11.964;2023-02-28T01:11:06;6.67;;;4.40;;
13872;SDS011;7006;51.494;11.964;2023-02-28T01:13:37;7.47;;;4.33;;
13872;SDS011;7006;51.494;11.964;2023-02-28T01:16:06;7.13;;;4.47;;
13872;SDS011;7006;51.494;11.964;2023-02-28T01:18:34;6.63;;;4.57;;
13872;SDS011;7006;51.494;11.964;2023-02-28T01:21:03;5.53;;;3.60;;
13872;SDS011;7006;51.494;11.964;2023-02-28T01:23:31;5.80;;;4.13;;
13872;SDS011;7006;51.494;11.964;2023-02-28T01:26:03;6.03;;;3.80;;
13872;SDS011;7006;51.494;11.964;2023-02-28T01:28:31;4.53;;;3.70;;
13872;SDS011;7006;51.494;11.964;2023-02-28T01:31:02;7.03;;;4.00;;
13872;SDS011;7006;51.494;11.964;2023-02-28T01:33:30;5.93;;;3.53;;
13872;SDS011;7006;51.494;11.964;2023-02-28T01:35:58;5.07;;;3.87;;
13872;SDS011;7006;51.494;11.964;2023-02-28T01:38:26;6.07;;;3.90;;
13872;SDS011;7006;51.494;11.964;2023-02-28T01:40:55;7.40;;;4.37;;
13872;SDS011;7006;51.494;11.964;2023-02-28T01:43:24;5.80;;;3.60;;
13872;SDS011;7006;51.494;11.964;2023-02-28T01:45:53;5.67;;;3.83;;
13872;SDS011;7006;51.494;11.964;2023-02-28T01:48:24;7.00;;;3.53;;
13872;SDS011;7006;51.494;11.964;2023-02-28T01:50:54;4.40;;;3.17;;
13872;SDS011;7006;51.494;11.964;2023-02-28T01:53:26;4.50;;;3.37;;
13872;SDS011;7006;51.494;11.964;2023-02-28T01:55:57;7.93;;;4.00;;
13872;SDS011;7006;51.494;11.964;2023-02-28T01:58:25;5.50;;;3.80;;
13872;SDS011;7006;51.494;11.964;2023-02-28T02:00:54;6.80;;;3.73;;
13872;SDS011;7006;51.494;11.964;2023-02-28T02:03:25;6.40;;;3.63;;
13872;SDS011;7006;51.494;11.964;2023-02-28T02:05:53;5.43;;;3.70;;
13872;SDS011;7006;51.494;11.964;2023-02-28T02:08:22;6.30;;;3.97;;
13872;SDS011;7006;51.494;11.964;2023-02-28T02:10:51;6.90;;;3.70;;
13872;SDS011;7006;51.494;11.964;2023-02-28T02:13:23;4.70;;;3.50;;
13872;SDS011;7006;51.494;11.964;2023-02-28T02:15:56;5.63;;;3.33;;
13872;SDS011;7006;51.494;11.964;2023-02-28T02:18:34;4.57;;;3.70;;
13872;SDS011;7006;51.494;11.964;2023-02-28T02:21:15;5.23;;;3.57;;
13872;SDS011;7006;51.494;11.964;2023-02-28T02:26:38;5.17;;;3.50;;
13872;SDS011;7006;51.494;11.964;2023-02-28T02:29:23;4.60;;;3.50;;
13872;SDS011;7006;51.494;11.964;2023-02-28T02:32:11;6.93;;;3.93;;
13872;SDS011;7006;51.494;11.964;2023-02-28T02:34:46;5.23;;;3.17;;
13872;SDS011;7006;51.494;11.964;2023-02-28T02:37:21;4.63;;;3.70;;
13872;SDS011;7006;51.494;11.964;2023-02-28T02:39:56;5.27;;;3.50;;
13872;SDS011;7006;51.494;11.964;2023-02-28T02:42:27;5.40;;;3.47;;
13872;SDS011;7006;51.494;11.964;2023-02-28T02:44:58;6.13;;;3.33;;
13872;SDS011;7006;51.494;11.964;2023-02-28T02:47:29;4.33;;;3.13;;
13872;SDS011;7006;51.494;11.964;2023-02-28T02:50:02;7.40;;;3.63;;
13872;SDS011;7006;51.494;11.964;2023-02-28T02:52:34;4.97;;;3.40;;
13872;SDS011;7006;51.494;11.964;2023-02-28T02:55:03;6.50;;;3.70;;
13872;SDS011;7006;51.494;11.964;2023-02-28T02:57:33;6.07;;;3.93;;
13872;SDS011;7006;51.494;11.964;2023-02-28T03:00:02;6.17;;;3.70;;
13872;SDS011;7006;51.494;11.964;2023-02-28T03:02:34;6.67;;;3.87;;
13872;SDS011;7006;51.494;11.964;2023-02-28T03:05:07;6.27;;;3.90;;
13872;SDS011;7006;51.494;11.964;2023-02-28T03:07:36;4.87;;;3.00;;
13872;SDS011;7006;51.494;11.964;2023-02-28T03:12:49;5.00;;;3.33;;
13872;SDS011;7006;51.494;11.964;2023-02-28T03:15:19;7.17;;;3.77;;
13872;SDS011;7006;51.494;11.964;2023-02-28T03:17:55;5.83;;;3.43;;
13872;SDS011;7006;51.494;11.964;2023-02-28T03:20:31;5.40;;;3.73;;
13872;SDS011;7006;51.494;11.964;2023-02-28T03:23:06;5.77;;;3.90;;
13872;SDS011;7006;51.494;11.964;2023-02-28T03:25:38;5.53;;;3.47;;
13872;SDS011;7006;51.494;11.964;2023-02-28T03:28:12;4.60;;;3.50;;
13872;SDS011;7006;51.494;11.964;2023-02-28T03:30:45;8.53;;;4.10;;
13872;SDS011;7006;51.494;11.964;2023-02-28T03:33:17;6.43;;;4.00;;
13872;SDS011;7006;51.494;11.964;2023-02-28T03:35:51;5.67;;;3.40;;
13872;SDS011;7006;51.494;11.964;2023-02-28T03:38:22;6.53;;;3.93;;
13872;SDS011;7006;51.494;11.964;2023-02-28T03:40:55;6.10;;;4.13;;
13872;SDS011;7006;51.494;11.964;2023-02-28T03:43:25;5.83;;;3.30;;
13872;SDS011;7006;51.494;11.964;2023-02-28T03:45:55;5.60;;;3.57;;
13872;SDS011;7006;51.494;11.964;2023-02-28T03:48:25;5.30;;;3.60;;
13872;SDS011;7006;51.494;11.964;2023-02-28T03:50:58;5.70;;;3.53;;
13872;SDS011;7006;51.494;11.964;2023-02-28T03:53:27;5.60;;;3.63;;
13872;SDS011;7006;51.494;11.964;2023-02-28T03:55:58;5.23;;;3.13;;
13872;SDS011;7006;51.494;11.964;2023-02-28T03:58:28;5.07;;;3.60;;
13872;SDS011;7006;51.494;11.964;2023-02-28T04:00:59;4.80;;;3.60;;
13872;SDS011;7006;51.494;11.964;2023-02-28T04:03:33;6.93;;;3.43;;
13872;SDS011;7006;51.494;11.964;2023-02-28T04:06:04;6.40;;;4.00;;
13872;SDS011;7006;51.494;11.964;2023-02-28T04:08:34;7.57;;;4.00;;
13872;SDS011;7006;51.494;11.964;2023-02-28T04:11:03;7.70;;;4.03;;
13872;SDS011;7006;51.494;11.964;2023-02-28T04:13:32;6.70;;;3.83;;
13872;SDS011;7006;51.494;11.964;2023-02-28T04:16:00;4.50;;;3.27;;
13872;SDS011;7006;51.494;11.964;2023-02-28T04:18:36;6.70;;;3.90;;
13872;SDS011;7006;51.494;11.964;2023-02-28T04:21:07;4.67;;;3.77;;
13872;SDS011;7006;51.494;11.964;2023-02-28T04:23:35;5.13;;;3.40;;
13872;SDS011;7006;51.494;11.964;2023-02-28T04:26:04;5.10;;;3.70;;
13872;SDS011;7006;51.494;11.964;2023-02-28T04:28:32;4.70;;;4.10;;
13872;SDS011;7006;51.494;11.964;2023-02-28T04:31:01;4.53;;;3.50;;
13872;SDS011;7006;51.494;11.964;2023-02-28T04:33:30;5.70;;;4.30;;
13872;SDS011;7006;51.494;11.964;2023-02-28T04:35:58;6.13;;;3.80;;
13872;SDS011;7006;51.494;11.964;2023-02-28T04:38:32;5.40;;;3.80;;
13872;SDS011;7006;51.494;11.964;2023-02-28T04:41:03;7.97;;;4.00;;
13872;SDS011;7006;51.494;11.964;2023-02-28T04:43:31;6.13;;;3.80;;
13872;SDS011;7006;51.494;11.964;2023-02-28T04:46:00;6.30;;;3.87;;
13872;SDS011;7006;51.494;11.964;2023-02-28T04:48:29;6.13;;;4.00;;
13872;SDS011;7006;51.494;11.964;2023-02-28T04:50:59;7.07;;;3.97;;
13872;SDS011;7006;51.494;11.964;2023-02-28T04:53:28;6.40;;;4.50;;
13872;SDS011;7006;51.494;11.964;2023-02-28T04:55:56;5.77;;;4.23;;
13872;SDS011;7006;51.494;11.964;2023-02-28T04:58:27;8.00;;;4.17;;
13872;SDS011;7006;51.494;11.964;2023-02-28T05:01:01;7.70;;;4.50;;
13872;SDS011;7006;51.494;11.964;2023-02-28T05:03:29;6.63;;;4.30;;
13872;SDS011;7006;51.494;11.964;2023-02-28T05:05:57;5.70;;;4.10;;
13872;SDS011;7006;51.494;11.964;2023-02-28T05:08:25;7.20;;;4.87;;
13872;SDS011;7006;51.494;11.964;2023-02-28T05:10:55;8.50;;;4.80;;
13872;SDS011;7006;51.494;11.964;2023-02-28T05:13:24;9.23;;;5.53;;
13872;SDS011;7006;51.494;11.964;2023-02-28T05:15:54;7.97;;;4.57;;
13872;SDS011;7006;51.494;11.964;2023-02-28T05:18:23;6.67;;;4.53;;
13872;SDS011;7006;51.494;11.964;2023-02-28T05:20:51;7.60;;;5.67;;
13872;SDS011;7006;51.494;11.964;2023-02-28T05:23:19;8.27;;;5.10;;
13872;SDS011;7006;51.494;11.964;2023-02-28T05:25:49;8.93;;;5.37;;
13872;SDS011;7006;51.494;11.964;2023-02-28T05:28:18;8.53;;;4.53;;
13872;SDS011;7006;51.494;11.964;2023-02-28T05:30:46;7.80;;;4.63;;
13872;SDS011;7006;51.494;11.964;2023-02-28T05:33:17;6.50;;;5.27;;
13872;SDS011;7006;51.494;11.964;2023-02-28T05:35:45;7.70;;;5.23;;
13872;SDS011;7006;51.494;11.964;2023-02-28T05:38:13;7.57;;;6.07;;
13872;SDS011;7006;51.494;11.964;2023-02-28T05:40:42;9.00;;;5.70;;
13872;SDS011;7006;51.494;11.964;2023-02-28T05:43:10;7.70;;;5.07;;
13872;SDS011;7006;51.494;11.964;2023-02-28T05:45:39;8.30;;;5.40;;
13872;SDS011;7006;51.494;11.964;2023-02-28T05:48:07;7.30;;;5.13;;
13872;SDS011;7006;51.494;11.964;2023-02-28T05:50:38;8.13;;;4.93;;
13872;SDS011;7006;51.494;11.964;2023-02-28T05:53:07;8.33;;;5.00;;
13872;SDS011;7006;51.494;11.964;2023-02-28T05:55:35;8.67;;;5.63;;
13872;SDS011;7006;51.494;11.964;2023-02-28T05:58:06;8.23;;;5.30;;
13872;SDS011;7006;51.494;11.964;2023-02-28T06:00:34;8.47;;;5.23;;
13872;SDS011;7006;51.494;11.964;2023-02-28T06:03:02;12.80;;;6.27;;
13872;SDS011;7006;51.494;11.964;2023-02-28T06:05:30;9.67;;;5.23;;
13872;SDS011;7006;51.494;11.964;2023-02-28T06:08:01;10.27;;;5.70;;
13872;SDS011;7006;51.494;11.964;2023-02-28T06:10:30;7.83;;;5.53;;
13872;SDS011;7006;51.494;11.964;2023-02-28T06:12:59;10.57;;;5.63;;
13872;SDS011;7006;51.494;11.964;2023-02-28T06:15:27;8.80;;;5.47;;
13872;SDS011;7006;51.494;11.964;2023-02-28T06:17:55;9.03;;;6.07;;
13872;SDS011;7006;51.494;11.964;2023-02-28T06:20:24;9.13;;;5.33;;
13872;SDS011;7006;51.494;11.964;2023-02-28T06:22:54;13.17;;;5.60;;
13872;SDS011;7006;51.494;11.964;2023-02-28T06:25:26;8.97;;;5.73;;
13872;SDS011;7006;51.494;11.964;2023-02-28T06:27:54;7.97;;;5.23;;
13872;SDS011;7006;51.494;11.964;2023-02-28T06:30:23;7.00;;;5.60;;
13872;SDS011;7006;51.494;11.964;2023-02-28T06:32:53;10.97;;;5.03;;
13872;SDS011;7006;51.494;11.964;2023-02-28T06:35:21;8.00;;;5.60;;
13872;SDS011;7006;51.494;11.964;2023-02-28T06:37:49;8.10;;;5.97;;
13872;SDS011;7006;51.494;11.964;2023-02-28T06:40:18;8.23;;;5.50;;
13872;SDS011;7006;51.494;11.964;2023-02-28T06:42:49;8.60;;;5.30;;
13872;SDS011;7006;51.494;11.964;2023-02-28T06:45:17;8.90;;;5.87;;
13872;SDS011;7006;51.494;11.964;2023-02-28T06:47:45;10.23;;;5.90;;
13872;SDS011;7006;51.494;11.964;2023-02-28T06:50:17;8.20;;;5.47;;
13872;SDS011;7006;51.494;11.964;2023-02-28T06:52:46;10.03;;;6.00;;
13872;SDS011;7006;51.494;11.964;2023-02-28T06:55:19;8.00;;;5.73;;
13872;SDS011;7006;51.494;11.964;2023-02-28T06:57:49;13.67;;;5.60;;
13872;SDS011;7006;51.494;11.964;2023-02-28T07:00:20;10.80;;;6.57;;
13872;SDS011;7006;51.494;11.964;2023-02-28T07:02:48;13.50;;;6.47;;
13872;SDS011;7006;51.494;11.964;2023-02-28T07:05:16;9.20;;;6.70;;
13872;SDS011;7006;51.494;11.964;2023-02-28T07:07:45;8.83;;;5.77;;
13872;SDS011;7006;51.494;11.964;2023-02-28T07:10:13;9.13;;;6.20;;
13872;SDS011;7006;51.494;11.964;2023-02-28T07:12:42;10.63;;;5.90;;
13872;SDS011;7006;51.494;11.964;2023-02-28T07:15:15;18.10;;;7.07;;
13872;SDS011;7006;51.494;11.964;2023-02-28T07:17:43;10.03;;;5.90;;
13872;SDS011;7006;51.494;11.964;2023-02-28T07:20:12;8.97;;;5.63;;
13872;SDS011;7006;51.494;11.964;2023-02-28T07:22:40;10.37;;;6.27;;
13872;SDS011;7006;51.494;11.964;2023-02-28T07:25:08;17.93;;;5.83;;
13872;SDS011;7006;51.494;11.964;2023-02-28T07:27:37;9.60;;;6.03;;
13872;SDS011;7006;51.494;11.964;2023-02-28T07:30:05;10.87;;;5.80;;
13872;SDS011;7006;51.494;11.964;2023-02-28T07:32:36;9.63;;;5.33;;
13872;SDS011;7006;51.494;11.964;2023-02-28T07:35:05;8.67;;;5.40;;
13872;SDS011;7006;51.494;11.964;2023-02-28T07:37:33;7.80;;;6.40;;
13872;SDS011;7006;51.494;11.964;2023-02-28T07:40:02;9.10;;;5.80;;
13872;SDS011;7006;51.494;11.964;2023-02-28T07:42:33;13.00;;;6.20;;
13872;SDS011;7006;51.494;11.964;2023-02-28T07:45:01;21.57;;;6.13;;
13872;SDS011;7006;51.494;11.964;2023-02-28T07:47:30;8.97;;;5.77;;
13872;SDS011;7006;51.494;11.964;2023-02-28T07:50:01;9.30;;;5.67;;
13872;SDS011;7006;51.494;11.964;2023-02-28T07:52:29;7.67;;;5.20;;
13872;SDS011;7006;51.494;11.964;2023-02-28T07:54:57;8.87;;;4.90;;
13872;SDS011;7006;51.494;11.964;2023-02-28T07:57:25;10.50;;;5.20;;
13872;SDS011;7006;51.494;11.964;2023-02-28T07:59:53;10.10;;;5.77;;
13872;SDS011;7006;51.494;11.964;2023-02-28T08:02:22;11.30;;;6.50;;
13872;SDS011;7006;51.494;11.964;2023-02-28T08:04:50;8.30;;;6.10;;
13872;SDS011;7006;51.494;11.964;2023-02-28T08:07:21;11.67;;;6.83;;
13872;SDS011;7006;51.494;11.964;2023-02-28T08:09:49;13.23;;;5.50;;
13872;SDS011;7006;51.494;11.964;2023-02-28T08:12:17;7.73;;;5.50;;
13872;SDS011;7006;51.494;11.964;2023-02-28T08:14:45;9.97;;;6.17;;
13872;SDS011;7006;51.494;11.964;2023-02-28T08:17:14;7.77;;;5.53;;
13872;SDS011;7006;51.494;11.964;2023-02-28T08:19:42;8.67;;;5.27;;
13872;SDS011;7006;51.494;11.964;2023-02-28T08:22:12;9.17;;;5.47;;
13872;SDS011;7006;51.494;11.964;2023-02-28T08:24:43;7.23;;;5.43;;
13872;SDS011;7006;51.494;11.964;2023-02-28T08:27:11;11.00;;;6.53;;
13872;SDS011;7006;51.494;11.964;2023-02-28T08:29:40;8.77;;;5.40;;
13872;SDS011;7006;51.494;11.964;2023-02-28T08:32:08;7.80;;;5.60;;
13872;SDS011;7006;51.494;11.964;2023-02-28T08:34:38;9.13;;;6.30;;
13872;SDS011;7006;51.494;11.964;2023-02-28T08:37:06;11.23;;;6.13;;
13872;SDS011;7006;51.494;11.964;2023-02-28T08:39:34;13.63;;;7.07;;
13872;SDS011;7006;51.494;11.964;2023-02-28T08:42:06;10.60;;;6.30;;
13872;SDS011;7006;51.494;11.964;2023-02-28T08:44:34;9.70;;;6.43;;
13872;SDS011;7006;51.494;11.964;2023-02-28T08:47:02;8.90;;;6.10;;
13872;SDS011;7006;51.494;11.964;2023-02-28T08:49:30;8.10;;;5.40;;
13872;SDS011;7006;51.494;11.964;2023-02-28T08:51:59;7.97;;;6.00;;
13872;SDS011;7006;51.494;11.964;2023-02-28T08:54:27;10.17;;;6.03;;
13872;SDS011;7006;51.494;11.964;2023-02-28T08:56:56;10.27;;;5.90;;
13872;SDS011;7006;51.494;11.964;2023-02-28T08:59:27;7.83;;;5.77;;
13872;SDS011;7006;51.494;11.964;2023-02-28T09:01:55;8.40;;;5.93;;
13872;SDS011;7006;51.494;11.964;2023-02-28T09:04:24;9.23;;;5.90;;
13872;SDS011;7006;51.494;11.964;2023-02-28T09:06:52;8.80;;;5.83;;
13872;SDS011;7006;51.494;11.964;2023-02-28T09:09:20;8.97;;;6.10;;
13872;SDS011;7006;51.494;11.964;2023-02-28T09:11:48;7.90;;;6.23;;
13872;SDS011;7006;51.494;11.964;2023-02-28T09:14:16;7.20;;;6.23;;
13872;SDS011;7006;51.494;11.964;2023-02-28T09:16:48;9.60;;;5.60;;
13872;SDS011;7006;51.494;11.964;2023-02-28T09:19:16;9.63;;;6.57;;
13872;SDS011;7006;51.494;11.964;2023-02-28T09:21:44;9.03;;;6.10;;
13872;SDS011;7006;51.494;11.964;2023-02-28T09:24:12;10.97;;;6.57;;
13872;SDS011;7006;51.494;11.964;2023-02-28T09:26:40;9.23;;;7.00;;
13872;SDS011;7006;51.494;11.964;2023-02-28T09:29:09;7.90;;;6.63;;
13872;SDS011;7006;51.494;11.964;2023-02-28T09:31:37;7.13;;;6.30;;
13872;SDS011;7006;51.494;11.964;2023-02-28T09:34:08;7.20;;;6.07;;
13872;SDS011;7006;51.494;11.964;2023-02-28T09:36:36;7.47;;;6.57;;
13872;SDS011;7006;51.494;11.964;2023-02-28T09:39:05;13.00;;;7.83;;
13872;SDS011;7006;51.494;11.964;2023-02-28T09:41:37;9.83;;;7.60;;
13872;SDS011;7006;51.494;11.964;2023-02-28T09:44:13;8.73;;;6.53;;
13872;SDS011;7006;51.494;11.964;2023-02-28T09:46:44;9.37;;;6.80;;
13872;SDS011;7006;51.494;11.964;2023-02-28T09:49:18;7.57;;;6.77;;
13872;SDS011;7006;51.494;11.964;2023-02-28T09:51:49;8.60;;;5.60;;
13872;SDS011;7006;51.494;11.964;2023-02-28T09:54:19;10.07;;;5.97;;
13872;SDS011;7006;51.494;11.964;2023-02-28T09:56:49;6.60;;;5.40;;
13872;SDS011;7006;51.494;11.964;2023-02-28T10:02:04;6.00;;;4.40;;
13872;SDS011;7006;51.494;11.964;2023-02-28T10:04:44;4.90;;;3.47;;
13872;SDS011;7006;51.494;11.964;2023-02-28T10:07:35;4.10;;;3.50;;
13872;SDS011;7006;51.494;11.964;2023-02-28T10:10:07;4.80;;;3.30;;
13872;SDS011;7006;51.494;11.964;2023-02-28T10:12:43;7.00;;;4.70;;
13872;SDS011;7006;51.494;11.964;2023-02-28T10:15:13;7.80;;;4.87;;
13872;SDS011;7006;51.494;11.964;2023-02-28T10:17:42;6.83;;;5.23;;
13872;SDS011;7006;51.494;11.964;2023-02-28T10:20:15;5.93;;;5.00;;
13872;SDS011;7006;51.494;11.964;2023-02-28T10:22:49;6.93;;;4.80;;
13872;SDS011;7006;51.494;11.964;2023-02-28T10:25:19;6.37;;;4.37;;
13872;SDS011;7006;51.494;11.964;2023-02-28T10:27:48;5.83;;;4.67;;
13872;SDS011;7006;51.494;11.964;2023-02-28T10:30:17;5.83;;;4.63;;
13872;SDS011;7006;51.494;11.964;2023-02-28T10:32:47;8.13;;;5.23;;
13872;SDS011;7006;51.494;11.964;2023-02-28T10:35:21;6.77;;;5.47;;
13872;SDS011;7006;51.494;11.964;2023-02-28T10:37:51;7.30;;;5.50;;
13872;SDS011;7006;51.494;11.964;2023-02-28T10:40:31;8.30;;;5.80;;
13872;SDS011;7006;51.494;11.964;2023-02-28T10:43:01;6.27;;;5.50;;
13872;SDS011;7006;51.494;11.964;2023-02-28T10:45:31;11.40;;;6.93;;
13872;SDS011;7006;51.494;11.964;2023-02-28T10:48:00;12.53;;;6.90;;
13872;SDS011;7006;51.494;11.964;2023-02-28T10:50:36;7.67;;;6.20;;
13872;SDS011;7006;51.494;11.964;2023-02-28T10:53:14;6.63;;;5.90;;
13872;SDS011;7006;51.494;11.964;2023-02-28T10:55:43;6.47;;;5.80;;
13872;SDS011;7006;51.494;11.964;2023-02-28T10:58:21;6.20;;;5.60;;
13872;SDS011;7006;51.494;11.964;2023-02-28T11:00:50;8.47;;;6.00;;
13872;SDS011;7006;51.494;11.964;2023-02-28T11:03:28;6.90;;;6.20;;
13872;SDS011;7006;51.494;11.964;2023-02-28T11:06:04;9.70;;;6.57;;
13872;SDS011;7006;51.494;11.964;2023-02-28T11:08:33;16.23;;;9.53;;
13872;SDS011;7006;51.494;11.964;2023-02-28T11:11:03;7.40;;;6.43;;
13872;SDS011;7006;51.494;11.964;2023-02-28T11:13:33;6.90;;;5.70;;
13872;SDS011;7006;51.494;11.964;2023-02-28T11:16:03;7.93;;;7.13;;
13872;SDS011;7006;51.494;11.964;2023-02-28T11:18:34;8.30;;;6.07;;
13872;SDS011;7006;51.494;11.964;2023-02-28T11:21:07;6.77;;;6.17;;
13872;SDS011;7006;51.494;11.964;2023-02-28T11:23:36;9.30;;;6.47;;
13872;SDS011;7006;51.494;11.964;2023-02-28T11:26:08;7.60;;;6.67;;
13872;SDS011;7006;51.494;11.964;2023-02-28T11:28:37;10.03;;;7.27;;
13872;SDS011;7006;51.494;11.964;2023-02-28T11:31:14;7.43;;;6.57;;
13872;SDS011;7006;51.494;11.964;2023-02-28T11:33:45;8.07;;;6.40;;
13872;SDS011;7006;51.494;11.964;2023-02-28T11:36:19;9.73;;;6.60;;
13872;SDS011;7006;51.494;11.964;2023-02-28T11:38:50;8.13;;;6.20;;
13872;SDS011;7006;51.494;11.964;2023-02-28T11:41:25;8.90;;;7.00;;
13872;SDS011;7006;51.494;11.964;2023-02-28T11:46:44;9.17;;;7.13;;
13872;SDS011;7006;51.494;11.964;2023-02-28T11:49:19;9.40;;;7.00;;
13872;SDS011;7006;51.494;11.964;2023-02-28T11:51:53;10.73;;;8.03;;
13872;SDS011;7006;51.494;11.964;2023-02-28T11:54:24;9.43;;;7.70;;
13872;SDS011;7006;51.494;11.964;2023-02-28T11:56:57;8.37;;;7.33;;
13872;SDS011;7006;51.494;11.964;2023-02-28T11:59:31;7.67;;;6.50;;
13872;SDS011;7006;51.494;11.964;2023-02-28T12:04:52;8.33;;;6.90;;
13872;SDS011;7006;51.494;11.964;2023-02-28T12:07:25;8.63;;;7.53;;
13872;SDS011;7006;51.494;11.964;2023-02-28T12:09:59;7.77;;;6.93;;
13872;SDS011;7006;51.494;11.964;2023-02-28T12:12:36;8.13;;;6.67;;
13872;SDS011;7006;51.494;11.964;2023-02-28T12:15:13;8.47;;;7.27;;
13872;SDS011;7006;51.494;11.964;2023-02-28T12:17:58;9.50;;;7.73;;
13872;SDS011;7006;51.494;11.964;2023-02-28T12:20:30;8.47;;;7.67;;
13872;SDS011;7006;51.494;11.964;2023-02-28T12:23:09;9.03;;;7.70;;
13872;SDS011;7006;51.494;11.964;2023-02-28T12:25:43;8.03;;;7.23;;
13872;SDS011;7006;51.494;11.964;2023-02-28T12:28:17;10.20;;;6.90;;
13872;SDS011;7006;51.494;11.964;2023-02-28T12:30:49;10.63;;;8.10;;
13872;SDS011;7006;51.494;11.964;2023-02-28T12:33:20;9.60;;;7.30;;
13872;SDS011;7006;51.494;11.964;2023-02-28T12:35:50;8.63;;;7.40;;
13872;SDS011;7006;51.494;11.964;2023-02-28T12:38:23;11.90;;;7.73;;
13872;SDS011;7006;51.494;11.964;2023-02-28T12:40:54;11.80;;;7.70;;
13872;SDS011;7006;51.494;11.964;2023-02-28T12:43:25;9.27;;;7.50;;
13872;SDS011;7006;51.494;11.964;2023-02-28T12:45:56;12.10;;;7.60;;
13872;SDS011;7006;51.494;11.964;2023-02-28T12:48:25;11.30;;;8.17;;
13872;SDS011;7006;51.494;11.964;2023-02-28T12:50:55;8.00;;;7.17;;
13872;SDS011;7006;51.494;11.964;2023-02-28T12:53:28;9.77;;;7.80;;
13872;SDS011;7006;51.494;11.964;2023-02-28T12:56:02;9.73;;;7.60;;
13872;SDS011;7006;51.494;11.964;2023-02-28T12:58:37;8.70;;;7.37;;
13872;SDS011;7006;51.494;11.964;2023-02-28T13:04:05;8.03;;;7.23;;
13872;SDS011;7006;51.494;11.964;2023-02-28T13:06:45;9.50;;;7.30;;
13872;SDS011;7006;51.494;11.964;2023-02-28T13:09:20;8.70;;;7.40;;
13872;SDS011;7006;51.494;11.964;2023-02-28T13:11:48;9.30;;;7.23;;
13872;SDS011;7006;51.494;11.964;2023-02-28T13:14:22;8.33;;;7.43;;
13872;SDS011;7006;51.494;11.964;2023-02-28T13:17:01;7.73;;;6.93;;
13872;SDS011;7006;51.494;11.964;2023-02-28T13:19:31;8.17;;;7.27;;
13872;SDS011;7006;51.494;11.964;2023-02-28T13:22:00;8.07;;;7.27;;
13872;SDS011;7006;51.494;11.964;2023-02-28T13:30:49;10.00;;;8.30;;
13872;SDS011;7006;51.494;11.964;2023-02-28T13:35:36;8.83;;;7.93;;
13872;SDS011;7006;51.494;11.964;2023-02-28T13:38:32;9.60;;;8.60;;
13872;SDS011;7006;51.494;11.964;2023-02-28T13:43:59;10.37;;;8.27;;
13872;SDS011;7006;51.494;11.964;2023-02-28T13:46:31;10.63;;;8.37;;
13872;SDS011;7006;51.494;11.964;2023-02-28T13:51:43;8.90;;;8.00;;
13872;SDS011;7006;51.494;11.964;2023-02-28T13:57:04;12.27;;;8.57;;
13872;SDS011;7006;51.494;11.964;2023-02-28T13:59:35;10.13;;;9.03;;
13872;SDS011;7006;51.494;11.964;2023-02-28T14:02:16;9.33;;;8.33;;
13872;SDS011;7006;51.494;11.964;2023-02-28T14:04:50;9.93;;;8.93;;
13872;SDS011;7006;51.494;11.964;2023-02-28T14:07:23;13.60;;;9.00;;
13872;SDS011;7006;51.494;11.964;2023-02-28T14:09:58;9.53;;;7.70;;
13872;SDS011;7006;51.494;11.964;2023-02-28T14:15:26;8.70;;;7.80;;
13872;SDS011;7006;51.494;11.964;2023-02-28T14:17:57;13.20;;;8.60;;
13872;SDS011;7006;51.494;11.964;2023-02-28T14:20:29;12.10;;;8.13;;
13872;SDS011;7006;51.494;11.964;2023-02-28T14:23:02;9.00;;;7.50;;
13872;SDS011;7006;51.494;11.964;2023-02-28T14:25:33;7.80;;;7.00;;
13872;SDS011;7006;51.494;11.964;2023-02-28T14:28:04;11.10;;;7.70;;
13872;SDS011;7006;51.494;11.964;2023-02-28T14:33:38;9.20;;;7.93;;
13872;SDS011;7006;51.494;11.964;2023-02-28T14:36:10;9.47;;;7.90;;
13872;SDS011;7006;51.494;11.964;2023-02-28T14:38:41;7.80;;;7.00;;
13872;SDS011;7006;51.494;11.964;2023-02-28T14:41:19;11.10;;;7.30;;
13872;SDS011;7006;51.494;11.964;2023-02-28T14:43:49;10.00;;;8.10;;
13872;SDS011;7006;51.494;11.964;2023-02-28T14:46:17;10.00;;;8.30;;
13872;SDS011;7006;51.494;11.964;2023-02-28T14:48:49;9.73;;;8.00;;
13872;SDS011;7006;51.494;11.964;2023-02-28T14:51:18;8.87;;;7.53;;
13872;SDS011;7006;51.494;11.964;2023-02-28T14:53:48;11.23;;;8.03;;
13872;SDS011;7006;51.494;11.964;2023-02-28T14:56:26;10.30;;;7.17;;
13872;SDS011;7006;51.494;11.964;2023-02-28T14:58:55;11.60;;;7.33;;
13872;SDS011;7006;51.494;11.964;2023-02-28T15:01:24;9.13;;;7.60;;
13872;SDS011;7006;51.494;11.964;2023-02-28T15:04:04;9.47;;;7.40;;
13872;SDS011;7006;51.494;11.964;2023-02-28T15:06:33;7.90;;;7.10;;
13872;SDS011;7006;51.494;11.964;2023-02-28T15:09:11;11.03;;;8.07;;
13872;SDS011;7006;51.494;11.964;2023-02-28T15:11:41;8.67;;;7.30;;
13872;SDS011;7006;51.494;11.964;2023-02-28T15:14:13;7.70;;;6.60;;
13872;SDS011;7006;51.494;11.964;2023-02-28T15:16:44;10.23;;;8.27;;
13872;SDS011;7006;51.494;11.964;2023-02-28T15:19:18;10.53;;;8.80;;
13872;SDS011;7006;51.494;11.964;2023-02-28T15:21:48;9.10;;;8.10;;
13872;SDS011;7006;51.494;11.964;2023-02-28T15:24:18;8.73;;;7.87;;
13872;SDS011;7006;51.494;11.964;2023-02-28T15:26:50;9.97;;;7.17;;
13872;SDS011;7006;51.494;11.964;2023-02-28T15:29:20;11.07;;;7.93;;
13872;SDS011;7006;51.494;11.964;2023-02-28T15:31:49;8.87;;;7.90;;
13872;SDS011;7006;51.494;11.964;2023-02-28T15:34:21;9.70;;;7.43;;
13872;SDS011;7006;51.494;11.964;2023-02-28T15:36:50;9.83;;;8.03;;
13872;SDS011;7006;51.494;11.964;2023-02-28T15:39:19;12.97;;;9.63;;
13872;SDS011;7006;51.494;11.964;2023-02-28T15:41:48;11.10;;;8.43;;
13872;SDS011;7006;51.494;11.964;2023-02-28T15:44:17;9.50;;;7.40;;
13872;SDS011;7006;51.494;11.964;2023-02-28T15:46:53;11.53;;;8.63;;